Main page
METAR-TAF:

METAR-TAF

Airports :

Grenoble Alpes Isère Airport

Grenoble, France

latitude: 45-22N, longitude: 005-20E, elevation: 384 m

Current weather observation

The report was made 35 minutes ago, at 05:00 UTC
Wind 2 kt from variable directions
Temperature 15°C
Humidity 82%
Pressure 1016 hPa
Visibility 10 km or more
no clouds below 1500 m and no cumulonimbus

METAR: LFLS 230500Z AUTO VRB02KT CAVOK 15/12 Q1016 NOSIG

Time: 07:35 (05:35 UTC)

Forecast

The report was made 3 hours and 35 minutes ago, at 02:00 UTC
Forecast valid from 23 at 03 UTC to 24 at 03 UTC
Wind 1 kt from variable directions
Visibility 10 km or more
Scattered clouds at a height of 7000 ft
Becoming
from 23 at 08 UTC to 23 at 10 UTC
Wind 11 kt from the North
Becoming
from 23 at 21 UTC to 23 at 23 UTC
Wind 1 kt from variable directions

TAF: LFLS 230200Z 2303/2403 VRB01KT 9999 SCT070 BECMG 2308/2310 35011KT BECMG 2321/2323 VRB01KT

Weather observations and forecasts of more than 4000 airports (METAR and TAF reports).

The available stations are represented by yellow and red dots on the map.

Hover mouse over dot to see the name of the station.

Then click to see weather observations and forecasts.

To change the map : click on the green buttons with a black cross to zoom in, on the green button with a dash to zoom out, or on the green arrows for adjacent maps.


METAR-TAF: